createdAt,value
2022-08-07T00:00:25.401Z,44.81
2022-08-07T00:02:53.715Z,44.95
2022-08-07T00:05:20.756Z,44.70
2022-08-07T00:07:58.228Z,44.81
2022-08-07T00:10:30.438Z,44.98
2022-08-07T00:13:03.323Z,45.29
2022-08-07T00:15:50.875Z,45.13
2022-08-07T00:18:24.039Z,44.97
2022-08-07T00:20:57.571Z,44.97
2022-08-07T00:23:30.097Z,44.99
2022-08-07T00:26:00.156Z,44.76
2022-08-07T00:28:34.079Z,45.17
2022-08-07T00:31:04.432Z,44.88
2022-08-07T00:33:33.594Z,45.13
2022-08-07T00:36:00.268Z,45.36
2022-08-07T00:38:31.166Z,44.62
2022-08-07T00:40:59.344Z,44.97
2022-08-07T00:44:01.339Z,45.01
2022-08-07T00:46:13.150Z,44.81
2022-08-07T00:48:42.320Z,45.25
2022-08-07T00:51:10.478Z,45.26
2022-08-07T00:53:39.084Z,45.29
2022-08-07T00:56:18.169Z,45.25
2022-08-07T00:58:47.048Z,44.62
2022-08-07T01:01:17.608Z,45.09
2022-08-07T01:03:55.830Z,44.68
2022-08-07T01:06:25.882Z,44.74
2022-08-07T01:08:53.836Z,44.92
2022-08-07T01:12:10.099Z,44.96
2022-08-07T01:14:10.393Z,45.00
2022-08-07T01:16:37.670Z,44.91
2022-08-07T01:19:18.346Z,44.58
2022-08-07T01:21:53.395Z,44.77
2022-08-07T01:24:22.810Z,45.29
2022-08-07T01:26:51.928Z,44.91
2022-08-07T01:29:20.574Z,44.89
2022-08-07T01:31:49.645Z,45.07
2022-08-07T01:34:18.003Z,45.49
2022-08-07T01:36:52.644Z,44.76
2022-08-07T01:39:39.684Z,44.73
2022-08-07T01:42:40.020Z,44.41
2022-08-07T01:45:02.080Z,44.31
2022-08-07T01:48:18.623Z,44.11
2022-08-07T01:50:16.639Z,44.48
2022-08-07T01:52:54.357Z,44.40
2022-08-07T01:55:28.346Z,44.27
2022-08-07T01:58:05.676Z,44.50
2022-08-07T02:00:38.824Z,44.30
2022-08-07T02:03:21.926Z,44.22
2022-08-07T02:06:08.834Z,44.54
2022-08-07T02:08:54.546Z,44.59
2022-08-07T02:12:04.029Z,44.66
2022-08-07T02:14:09.919Z,44.52
2022-08-07T02:16:42.636Z,44.44
2022-08-07T02:20:04.768Z,44.41
2022-08-07T02:22:02.758Z,45.22
2022-08-07T02:24:30.332Z,45.18
2022-08-07T02:27:01.425Z,44.65
2022-08-07T02:29:31.457Z,44.88
2022-08-07T02:32:00.158Z,44.79
2022-08-07T02:34:28.406Z,45.23
2022-08-07T02:36:57.987Z,44.79
2022-08-07T02:39:43.817Z,45.32
2022-08-07T02:42:16.417Z,45.42
2022-08-07T02:44:48.033Z,44.59
2022-08-07T02:47:23.783Z,44.88
2022-08-07T02:49:57.568Z,45.19
2022-08-07T02:53:03.429Z,44.64
2022-08-07T02:56:02.503Z,44.59
2022-08-07T02:58:22.400Z,44.68
2022-08-07T03:00:57.447Z,44.58
2022-08-07T03:03:29.658Z,45.30
2022-08-07T03:06:16.393Z,45.02
2022-08-07T03:08:52.802Z,45.34
2022-08-07T03:11:20.458Z,44.92
2022-08-07T03:13:57.680Z,44.76
2022-08-07T03:16:30.394Z,44.60
2022-08-07T03:19:01.485Z,44.69
2022-08-07T03:21:29.147Z,44.79
2022-08-07T03:24:20.465Z,45.17
2022-08-07T03:26:58.385Z,45.35
2022-08-07T03:29:33.795Z,44.95
2022-08-07T03:32:05.198Z,44.87
2022-08-07T03:34:39.123Z,44.62
2022-08-07T03:37:12.643Z,44.68
2022-08-07T03:39:59.159Z,44.79
2022-08-07T03:42:27.204Z,44.99
2022-08-07T03:44:58.001Z,44.63
2022-08-07T03:47:26.131Z,44.78
2022-08-07T03:49:57.758Z,44.66
2022-08-07T03:52:27.722Z,44.92
2022-08-07T03:54:59.176Z,45.18
2022-08-07T03:58:34.611Z,45.19
2022-08-07T04:00:30.642Z,44.67
2022-08-07T04:03:03.759Z,44.49
2022-08-07T04:05:40.996Z,44.83
2022-08-07T04:08:16.055Z,44.60
2022-08-07T04:10:54.129Z,45.32
2022-08-07T04:14:14.052Z,45.30
2022-08-07T04:16:31.358Z,44.81
2022-08-07T04:19:01.631Z,45.22
2022-08-07T04:21:33.332Z,45.09
2022-08-07T04:24:06.070Z,44.87
2022-08-07T04:26:34.792Z,44.94
2022-08-07T04:29:03.177Z,44.98
2022-08-07T04:32:02.702Z,44.79
2022-08-07T04:34:24.077Z,44.28
2022-08-07T04:37:00.845Z,44.74
2022-08-07T04:39:29.292Z,44.58
2022-08-07T04:42:04.035Z,44.53
2022-08-07T04:44:30.950Z,44.62
2022-08-07T04:47:56.787Z,44.54
2022-08-07T04:50:12.493Z,44.62
2022-08-07T04:52:51.807Z,44.62
2022-08-07T04:58:16.316Z,44.28
2022-08-07T04:59:18.532Z,44.49
2022-08-07T05:02:08.945Z,44.23
2022-08-07T05:05:52.042Z,43.94
2022-08-07T05:08:58.910Z,43.89
2022-08-07T05:11:58.510Z,43.79
2022-08-07T05:14:55.986Z,44.42
2022-08-07T05:17:52.803Z,44.74
2022-08-07T05:20:10.879Z,44.58
2022-08-07T05:22:39.507Z,45.23
2022-08-07T05:25:08.730Z,44.97
2022-08-07T05:28:16.274Z,43.88
2022-08-07T05:30:42.517Z,44.83
2022-08-07T05:33:11.301Z,43.32
2022-08-07T05:35:42.089Z,43.05
2022-08-07T05:38:11.227Z,43.64
2022-08-07T05:40:42.764Z,43.02
2022-08-07T05:43:18.607Z,42.95
2022-08-07T05:45:48.103Z,43.04
2022-08-07T05:48:16.562Z,43.30
2022-08-07T05:50:44.302Z,42.66
2022-08-07T05:54:08.714Z,42.82
2022-08-07T05:56:02.093Z,42.89
2022-08-07T05:58:37.023Z,42.89
2022-08-07T06:01:10.760Z,42.50
2022-08-07T06:03:56.598Z,42.43
2022-08-07T06:06:29.347Z,42.50
2022-08-07T06:08:57.655Z,42.50
2022-08-07T06:11:25.278Z,42.82
2022-08-07T06:14:13.213Z,42.75
2022-08-07T06:16:40.667Z,42.83
2022-08-07T06:19:08.679Z,42.91
2022-08-07T06:22:16.832Z,43.07
2022-08-07T06:24:45.476Z,43.53
2022-08-07T06:27:44.295Z,43.38
2022-08-07T06:30:31.996Z,43.67
2022-08-07T06:32:58.170Z,43.75
2022-08-07T06:35:24.917Z,44.30
2022-08-07T06:38:08.287Z,44.38
2022-08-07T06:40:54.261Z,44.11
2022-08-07T06:43:23.777Z,43.85
2022-08-07T06:45:50.850Z,43.53
2022-08-07T06:48:25.009Z,43.61
2022-08-07T06:50:54.779Z,43.69
2022-08-07T06:55:27.295Z,43.86
2022-08-07T06:56:15.036Z,43.83
2022-08-07T07:00:12.709Z,43.85
2022-08-07T07:01:44.115Z,43.74
2022-08-07T07:04:28.140Z,43.96
2022-08-07T07:07:00.983Z,43.86
2022-08-07T07:09:31.211Z,44.18
2022-08-07T07:12:25.620Z,43.90
2022-08-07T07:15:08.611Z,44.14
2022-08-07T07:17:52.903Z,43.71
2022-08-07T07:20:27.577Z,43.97
2022-08-07T07:24:10.064Z,44.33
2022-08-07T07:26:32.806Z,44.37
2022-08-07T07:28:48.389Z,44.19
2022-08-07T07:31:57.039Z,44.32
2022-08-07T07:34:31.196Z,44.26
2022-08-07T07:37:14.584Z,44.16
2022-08-07T07:39:55.341Z,44.53
2022-08-07T07:42:32.451Z,44.07
2022-08-07T07:45:02.327Z,44.49
2022-08-07T07:47:42.939Z,44.53
2022-08-07T07:50:34.297Z,44.43
2022-08-07T07:53:13.731Z,44.30
2022-08-07T07:55:57.715Z,44.63
2022-08-07T07:58:40.298Z,43.77
2022-08-07T08:02:02.707Z,44.18
2022-08-07T08:04:10.435Z,43.84
2022-08-07T08:06:52.109Z,43.56
2022-08-07T08:09:20.763Z,43.86
2022-08-07T08:12:01.624Z,43.91
2022-08-07T08:14:36.615Z,43.52
2022-08-07T08:18:36.868Z,43.73
2022-08-07T08:20:19.086Z,43.76
2022-08-07T08:23:08.356Z,43.95
2022-08-07T08:25:56.448Z,44.04
2022-08-07T08:28:37.282Z,43.76
2022-08-07T08:31:14.799Z,43.77
2022-08-07T08:33:48.972Z,43.92
2022-08-07T08:36:25.565Z,43.43
2022-08-07T08:38:57.550Z,43.54
2022-08-07T08:41:57.618Z,43.60
2022-08-07T08:44:53.294Z,43.90
2022-08-07T08:47:57.547Z,43.48
2022-08-07T08:50:39.108Z,43.14
2022-08-07T08:53:16.597Z,43.25
2022-08-07T08:56:02.471Z,43.31
2022-08-07T08:58:54.463Z,43.70
2022-08-07T09:01:40.033Z,43.30
2022-08-07T09:04:26.139Z,42.80
2022-08-07T09:07:01.516Z,43.09
2022-08-07T09:10:14.832Z,42.99
2022-08-07T09:13:14.863Z,43.55
2022-08-07T09:16:22.310Z,42.72
2022-08-07T09:19:52.015Z,43.06
2022-08-07T09:24:32.047Z,42.77
2022-08-07T09:25:24.619Z,43.59
2022-08-07T09:28:05.133Z,42.95
2022-08-07T09:30:37.942Z,42.66
2022-08-07T09:33:40.893Z,43.01
2022-08-07T09:36:21.896Z,42.67
2022-08-07T09:39:52.606Z,42.56
2022-08-07T09:42:11.952Z,42.48
2022-08-07T09:47:25.998Z,42.75
2022-08-07T09:48:29.848Z,41.74
2022-08-07T09:51:25.988Z,39.94
2022-08-07T09:54:03.286Z,40.44
2022-08-07T09:57:14.566Z,40.31
2022-08-07T10:00:06.511Z,40.57
2022-08-07T10:02:57.944Z,40.30
2022-08-07T10:06:17.248Z,39.49
2022-08-07T10:09:23.584Z,39.39
2022-08-07T10:12:34.859Z,38.98
2022-08-07T10:15:30.349Z,39.05
2022-08-07T10:18:27.108Z,39.28
2022-08-07T10:22:12.555Z,39.15
2022-08-07T10:24:26.757Z,40.09
2022-08-07T10:26:53.702Z,39.42
2022-08-07T10:29:51.437Z,38.65
2022-08-07T10:32:52.635Z,38.77
2022-08-07T10:35:56.280Z,38.25
2022-08-07T10:38:36.031Z,38.17
2022-08-07T10:41:51.247Z,38.03
2022-08-07T10:44:39.933Z,37.46
2022-08-07T10:47:54.917Z,37.27
2022-08-07T10:50:25.970Z,36.92
2022-08-07T10:53:27.459Z,36.35
2022-08-07T10:56:20.869Z,35.44
2022-08-07T10:59:38.660Z,34.74
2022-08-07T11:02:33.116Z,34.33
2022-08-07T11:05:35.684Z,33.08
2022-08-07T11:08:41.548Z,33.69
2022-08-07T11:11:14.244Z,32.95
2022-08-07T11:14:43.990Z,33.57
2022-08-07T11:16:54.768Z,31.95
2022-08-07T11:19:27.216Z,31.95
2022-08-07T11:22:18.841Z,32.42
2022-08-07T11:24:59.829Z,33.96
2022-08-07T11:28:01.376Z,34.85
2022-08-07T11:30:41.973Z,36.19
2022-08-07T11:33:58.749Z,36.83
2022-08-07T11:36:31.827Z,37.17
2022-08-07T11:39:23.943Z,37.43
2022-08-07T11:42:05.784Z,37.20
2022-08-07T11:44:52.127Z,36.76
2022-08-07T11:47:56.516Z,37.28
2022-08-07T11:50:57.814Z,33.36
2022-08-07T11:53:43.368Z,35.46
2022-08-07T11:56:56.288Z,35.75
2022-08-07T12:00:11.499Z,34.40
2022-08-07T12:02:52.625Z,33.70
2022-08-07T12:05:58.439Z,35.21
2022-08-07T12:08:44.149Z,32.53
2022-08-07T12:12:09.171Z,32.54
2022-08-07T12:15:00.478Z,32.61
2022-08-07T12:17:58.609Z,31.95
2022-08-07T12:20:51.162Z,32.43
2022-08-07T12:24:06.304Z,32.66
2022-08-07T12:26:29.793Z,32.96
2022-08-07T12:29:11.309Z,33.26
2022-08-07T12:32:02.054Z,32.95
2022-08-07T12:34:34.603Z,33.16
2022-08-07T12:37:08.474Z,33.88
2022-08-07T12:39:52.524Z,33.87
2022-08-07T12:42:27.089Z,33.44
2022-08-07T12:45:04.481Z,33.83
2022-08-07T12:47:45.686Z,33.10
2022-08-07T12:50:34.017Z,34.13
2022-08-07T12:54:02.652Z,33.59
2022-08-07T12:56:31.097Z,33.11
2022-08-07T12:59:00.759Z,33.65
2022-08-07T13:02:01.393Z,33.40
2022-08-07T13:05:02.605Z,33.60
2022-08-07T13:08:33.830Z,32.74
2022-08-07T13:11:06.164Z,33.27
2022-08-07T13:13:51.582Z,33.31
2022-08-07T13:16:36.784Z,33.05
2022-08-07T13:19:45.798Z,32.71
2022-08-07T13:22:34.301Z,32.64
2022-08-07T13:25:23.888Z,32.36
2022-08-07T13:28:13.078Z,32.61
2022-08-07T13:30:52.286Z,32.12
2022-08-07T13:34:31.876Z,32.33
2022-08-07T13:36:17.428Z,32.31
2022-08-07T13:39:28.253Z,32.34
2022-08-07T13:42:00.955Z,32.55
2022-08-07T13:44:34.317Z,32.07
2022-08-07T13:47:09.308Z,32.36
2022-08-07T13:50:33.597Z,32.10
2022-08-07T13:52:38.063Z,32.15
2022-08-07T13:55:26.224Z,32.35
2022-08-07T13:58:27.654Z,32.27
2022-08-07T14:00:58.047Z,32.39
2022-08-07T14:04:05.403Z,31.73
2022-08-07T14:06:17.759Z,31.93
2022-08-07T14:08:48.793Z,31.38
2022-08-07T14:11:23.466Z,31.51
2022-08-07T14:14:02.555Z,31.84
2022-08-07T14:16:38.054Z,31.49
2022-08-07T14:19:10.530Z,31.73
2022-08-07T14:22:03.921Z,31.79
2022-08-07T14:24:41.593Z,31.73
2022-08-07T14:27:16.082Z,31.96
2022-08-07T14:30:11.868Z,31.93
2022-08-07T14:32:55.292Z,31.82
2022-08-07T14:35:45.024Z,32.08
2022-08-07T14:38:26.741Z,31.96
2022-08-07T14:41:02.263Z,32.33
2022-08-07T14:43:55.186Z,32.00
2022-08-07T14:49:57.582Z,32.07
2022-08-07T14:52:04.591Z,31.70
2022-08-07T14:54:42.175Z,32.42
2022-08-07T14:57:19.536Z,32.29
2022-08-07T15:00:05.191Z,32.37
2022-08-07T15:02:34.466Z,32.77
2022-08-07T15:05:03.419Z,32.84
2022-08-07T15:07:51.333Z,32.69
2022-08-07T15:13:18.086Z,33.19
2022-08-07T15:15:53.479Z,32.93
2022-08-07T15:27:09.928Z,32.98
2022-08-07T15:32:38.860Z,33.22
2022-08-07T15:35:14.516Z,33.49
2022-08-07T15:40:38.439Z,34.13
2022-08-07T15:43:33.094Z,33.90
2022-08-07T15:46:31.728Z,34.23
2022-08-07T15:52:01.688Z,34.67
2022-08-07T15:54:39.236Z,34.82
2022-08-07T15:57:28.339Z,35.03
2022-08-07T15:59:59.532Z,35.59
2022-08-07T16:02:46.911Z,35.78
2022-08-07T16:05:17.924Z,35.73
2022-08-07T16:08:33.706Z,35.70
2022-08-07T16:11:04.180Z,35.54
2022-08-07T16:13:58.962Z,35.80
2022-08-07T16:17:15.112Z,35.92
2022-08-07T16:20:00.144Z,36.04
2022-08-07T16:22:55.672Z,36.51
2022-08-07T16:25:54.717Z,36.68
2022-08-07T16:30:07.886Z,36.50
2022-08-07T16:31:51.312Z,36.99
2022-08-07T16:34:32.840Z,36.74
2022-08-07T16:38:02.930Z,37.02
2022-08-07T16:40:28.975Z,36.64
2022-08-07T16:43:03.429Z,36.76
2022-08-07T16:46:33.694Z,36.84
2022-08-07T16:50:28.789Z,36.64
2022-08-07T16:52:51.991Z,37.10
2022-08-07T16:55:08.461Z,36.84
2022-08-07T16:58:03.745Z,37.41
2022-08-07T17:00:41.416Z,37.45
2022-08-07T17:03:15.811Z,37.50
2022-08-07T17:06:34.294Z,37.53
2022-08-07T17:10:06.884Z,37.42
2022-08-07T17:12:44.684Z,37.47
2022-08-07T17:15:16.028Z,37.76
2022-08-07T17:17:47.361Z,37.95
2022-08-07T17:20:33.205Z,38.09
2022-08-07T17:23:14.949Z,38.10
2022-08-07T17:26:22.577Z,38.27
2022-08-07T17:29:06.268Z,38.08
2022-08-07T17:31:44.295Z,38.39
2022-08-07T17:34:57.255Z,38.56
2022-08-07T17:38:09.521Z,38.57
2022-08-07T17:40:54.526Z,38.48
2022-08-07T17:44:01.500Z,38.50
2022-08-07T17:46:52.143Z,38.63
2022-08-07T17:49:24.168Z,38.64
2022-08-07T17:52:12.663Z,38.43
2022-08-07T17:54:54.037Z,38.41
2022-08-07T17:57:59.028Z,38.75
2022-08-07T18:00:34.656Z,38.62
2022-08-07T18:04:04.200Z,38.61
2022-08-07T18:06:36.640Z,38.68
2022-08-07T18:09:06.300Z,38.65
2022-08-07T18:12:17.897Z,38.70
2022-08-07T18:14:54.830Z,38.64
2022-08-07T18:18:47.687Z,38.40
2022-08-07T18:21:12.556Z,38.70
2022-08-07T18:23:41.974Z,38.63
2022-08-07T18:26:05.431Z,38.68
2022-08-07T18:30:07.238Z,38.75
2022-08-07T18:32:09.078Z,38.64
2022-08-07T18:35:00.966Z,38.92
2022-08-07T18:38:57.673Z,39.00
2022-08-07T18:41:03.800Z,38.78
2022-08-07T18:43:49.182Z,39.17
2022-08-07T18:46:43.128Z,39.06
2022-08-07T18:50:19.206Z,38.96
2022-08-07T18:53:06.055Z,39.09
2022-08-07T18:55:55.719Z,39.19
2022-08-07T18:58:34.738Z,39.28
2022-08-07T19:02:16.023Z,39.21
2022-08-07T19:04:09.375Z,39.33
2022-08-07T19:06:53.207Z,39.22
2022-08-07T19:09:56.352Z,39.40
2022-08-07T19:12:21.714Z,39.61
2022-08-07T19:14:55.905Z,39.62
2022-08-07T19:18:00.961Z,39.74
2022-08-07T19:21:09.110Z,39.77
2022-08-07T19:23:58.767Z,39.68
2022-08-07T19:26:43.451Z,39.95
2022-08-07T19:31:05.487Z,39.97
2022-08-07T19:32:27.138Z,40.12
2022-08-07T19:35:00.623Z,40.30
2022-08-07T19:37:55.370Z,40.23
2022-08-07T19:40:18.771Z,40.45
2022-08-07T19:42:58.638Z,40.15
2022-08-07T19:46:05.104Z,40.39
2022-08-07T19:48:18.682Z,40.39
2022-08-07T19:50:53.591Z,40.31
2022-08-07T19:54:35.068Z,40.40
2022-08-07T19:57:51.909Z,40.76
2022-08-07T19:58:58.543Z,40.52
2022-08-07T20:01:52.911Z,40.71
2022-08-07T20:04:31.545Z,40.84
2022-08-07T20:07:09.036Z,41.05
2022-08-07T20:10:35.891Z,41.45
2022-08-07T20:12:35.862Z,41.13
2022-08-07T20:15:15.564Z,41.60
2022-08-07T20:17:56.231Z,41.54
2022-08-07T20:20:31.652Z,41.35
2022-08-07T20:23:23.154Z,41.56
2022-08-07T20:25:51.094Z,41.65
2022-08-07T20:28:29.479Z,41.12
2022-08-07T20:30:57.159Z,41.22
2022-08-07T20:33:37.493Z,41.46
2022-08-07T20:36:08.352Z,41.78
2022-08-07T20:38:59.675Z,41.82
2022-08-07T20:41:34.070Z,41.43
2022-08-07T20:44:10.470Z,41.92
2022-08-07T20:46:43.746Z,41.51
2022-08-07T20:49:58.311Z,41.99
2022-08-07T20:52:07.812Z,41.86
2022-08-07T20:54:45.701Z,41.40
2022-08-07T20:57:59.981Z,41.75
2022-08-07T21:00:44.114Z,41.63
2022-08-07T21:03:19.156Z,41.97
2022-08-07T21:05:57.126Z,42.23
2022-08-07T21:08:36.854Z,41.45
2022-08-07T21:11:10.956Z,41.61
2022-08-07T21:14:20.305Z,41.55
2022-08-07T21:16:36.292Z,41.55
2022-08-07T21:19:06.359Z,41.94
2022-08-07T21:21:57.219Z,41.87
2022-08-07T21:24:42.257Z,41.81
2022-08-07T21:27:39.998Z,41.57
2022-08-07T21:30:16.739Z,41.55
2022-08-07T21:32:55.558Z,42.18
2022-08-07T21:36:03.985Z,41.71
2022-08-07T21:38:37.688Z,41.89
2022-08-07T21:41:38.415Z,42.19
2022-08-07T21:44:30.880Z,41.90
2022-08-07T21:47:17.363Z,41.78
2022-08-07T21:50:01.991Z,41.93
2022-08-07T21:52:41.916Z,41.96
2022-08-07T21:55:19.263Z,42.56
2022-08-07T21:58:06.672Z,41.95
2022-08-07T22:00:35.400Z,42.65
2022-08-07T22:03:31.741Z,42.54
2022-08-07T22:06:29.902Z,42.25
2022-08-07T22:09:07.859Z,42.52
2022-08-07T22:12:05.792Z,42.67
2022-08-07T22:14:36.438Z,42.31
2022-08-07T22:17:05.008Z,42.45
2022-08-07T22:20:04.329Z,42.20
2022-08-07T22:23:08.370Z,42.34
2022-08-07T22:25:51.163Z,42.85
2022-08-07T22:28:53.212Z,42.63
2022-08-07T22:31:56.456Z,42.90
2022-08-07T22:34:19.844Z,42.51
2022-08-07T22:37:12.518Z,42.58
2022-08-07T22:39:57.491Z,42.84
2022-08-07T22:42:29.470Z,42.08
2022-08-07T22:45:02.213Z,42.41
2022-08-07T22:48:31.360Z,43.22
2022-08-07T22:51:23.599Z,43.14
2022-08-07T22:54:12.183Z,43.13
2022-08-07T22:56:45.607Z,43.05
2022-08-07T22:59:49.806Z,43.06
2022-08-07T23:02:32.406Z,43.21
2022-08-07T23:06:08.179Z,43.00
2022-08-07T23:08:22.627Z,42.94
2022-08-07T23:11:13.167Z,42.90
2022-08-07T23:14:10.586Z,43.21
2022-08-07T23:17:00.825Z,42.55
2022-08-07T23:20:51.437Z,42.98
2022-08-07T23:24:06.589Z,43.01
2022-08-07T23:26:38.256Z,43.02
2022-08-07T23:29:16.633Z,42.45
2022-08-07T23:34:22.180Z,42.75
2022-08-07T23:35:01.121Z,42.93
2022-08-07T23:38:00.904Z,43.05
2022-08-07T23:40:41.980Z,42.53
2022-08-07T23:43:37.926Z,42.64
2022-08-07T23:46:38.553Z,42.83
2022-08-07T23:49:22.971Z,43.08
2022-08-07T23:53:05.707Z,43.11
2022-08-07T23:55:52.233Z,42.73
2022-08-07T23:58:34.802Z,43.15
